Time;durP1;ratioP1;P1;durP2;ratioP2;P2;SDS_P1;SDS_P2;PMS_P1;PMS_P2;Temp;Humidity;BMP_temperature;BMP_pressure;BME280_temperature;BME280_humidity;BME280_pressure;Samples;Min_cycle;Max_cycle;Signal;HPM_P1;HPM_P2
2021/08/10 00:02:29;;;;;;;9.30;6.40;;;;;;;16.76;89.76;99432.95;4092910;85;21048;-81
2021/08/10 00:08:30;;;;;;;9.70;5.87;;;;;;;16.80;89.51;99435.88;4091460;85;21087;-82
2021/08/10 00:14:31;;;;;;;9.88;5.80;;;;;;;16.70;89.41;99417.39;4102977;85;21024;-81
2021/08/10 00:20:34;;;;;;;10.00;5.75;;;;;;;16.59;89.61;99418.06;4102445;84;21426;-83
2021/08/10 00:26:35;;;;;;;9.85;6.22;;;;;;;16.44;89.48;99393.09;4101449;85;21520;-82
2021/08/10 00:32:36;;;;;;;8.40;5.45;;;;;;;16.24;89.85;99365.73;4117907;84;21070;-82
2021/08/10 00:38:39;;;;;;;9.50;6.20;;;;;;;16.33;90.70;99361.16;4105673;84;21079;-82
2021/08/10 00:44:41;;;;;;;12.82;6.53;;;;;;;16.31;90.46;99355.23;4101616;84;21023;-82
2021/08/10 00:50:43;;;;;;;7.40;5.10;;;;;;;16.32;91.05;99369.27;4122605;84;21032;-81
2021/08/10 00:56:46;;;;;;;8.10;5.35;;;;;;;16.44;91.71;99377.08;4109247;84;21094;-82
2021/08/10 01:02:48;;;;;;;8.80;5.58;;;;;;;16.52;91.41;99384.16;4110317;85;21553;-82
2021/08/10 01:09:09;;;;;;;8.45;5.28;;;;;;;16.58;91.77;99394.97;4109077;84;21131;-81
2021/08/10 01:15:20;;;;;;;10.55;5.90;;;;;;;16.64;91.77;99391.37;4107988;84;21074;-82
2021/08/10 01:21:39;;;;;;;9.70;5.65;;;;;;;16.50;91.20;99381.01;4104145;84;21169;-82
2021/08/10 01:28:19;;;;;;;10.58;5.97;;;;;;;16.43;91.75;99376.86;4106206;84;21684;-81
2021/08/10 01:34:41;;;;;;;13.78;6.83;;;;;;;16.46;92.35;99374.11;4128995;84;21039;-81
2021/08/10 01:40:59;;;;;;;15.08;6.35;;;;;;;16.43;92.10;99382.39;4098687;84;21133;-83
2021/08/10 01:47:03;;;;;;;15.30;6.28;;;;;;;16.47;92.37;99383.20;4084528;84;21071;-81
2021/08/10 01:53:08;;;;;;;8.38;5.83;;;;;;;16.46;92.66;99394.08;4099881;85;21118;-81
2021/08/10 01:59:12;;;;;;;14.03;6.53;;;;;;;16.46;92.72;99396.84;4079305;85;21068;-85
2021/08/10 02:05:15;;;;;;;10.50;6.62;;;;;;;16.52;92.72;99391.07;4077319;85;21433;-82
2021/08/10 02:11:18;;;;;;;12.50;6.95;;;;;;;16.46;92.93;99387.93;4091679;85;21030;-83
2021/08/10 02:17:20;;;;;;;11.90;6.70;;;;;;;16.40;93.12;99381.82;4093104;85;21093;-83
2021/08/10 02:23:25;;;;;;;10.78;6.83;;;;;;;16.35;93.14;99376.13;4090593;85;21111;-81
2021/08/10 02:29:32;;;;;;;11.53;7.40;;;;;;;16.31;93.14;99384.25;4094415;85;21051;-82
2021/08/10 02:35:34;;;;;;;;;;;;;;;16.20;93.36;99379.38;4095313;84;21033;-82
2021/08/10 02:41:39;;;;;;;10.80;6.47;;;;;;;16.23;94.66;99373.05;4091949;85;20579;-81
2021/08/10 02:47:56;;;;;;;12.28;6.53;;;;;;;16.33;94.24;99368.06;4084314;85;21130;-81
2021/08/10 02:54:00;;;;;;;10.72;7.00;;;;;;;16.37;94.20;99377.90;4077823;85;21076;-84
2021/08/10 03:00:10;;;;;;;9.25;5.95;;;;;;;16.33;94.23;99364.72;4108683;84;21583;-82
2021/08/10 03:06:12;;;;;;;11.05;6.17;;;;;;;16.31;94.55;99363.53;4108641;84;21106;-81
2021/08/10 03:12:19;;;;;;;14.47;6.85;;;;;;;16.39;94.79;99375.53;4112722;84;21062;-81
2021/08/10 03:18:26;;;;;;;11.30;5.72;;;;;;;16.37;94.36;99359.14;4115378;84;21069;-83
2021/08/10 03:24:29;;;;;;;10.38;6.60;;;;;;;16.32;94.75;99366.50;4118594;84;21054;-82
2021/08/10 03:30:31;;;;;;;14.00;6.25;;;;;;;16.29;94.87;99367.28;4103782;84;21049;-81
2021/08/10 03:36:34;;;;;;;7.20;5.90;;;;;;;16.27;95.14;99368.30;4112709;84;21084;-81
2021/08/10 03:42:37;;;;;;;14.80;5.95;;;;;;;16.27;95.06;99362.16;4103563;84;21675;-81
2021/08/10 03:48:42;;;;;;;7.47;6.25;;;;;;;16.36;95.40;99349.30;4038346;86;21178;-81
2021/08/10 03:54:46;;;;;;;9.93;6.20;;;;;;;16.28;95.20;99354.09;3972159;88;21143;-82
2021/08/10 04:00:51;;;;;;;14.55;6.72;;;;;;;16.22;95.12;99351.56;4052155;86;23545;-82
2021/08/10 04:06:55;;;;;;;12.13;6.72;;;;;;;16.13;95.93;99373.91;4037505;85;21042;-82
2021/08/10 04:12:56;;;;;;;10.38;7.78;;;;;;;16.17;95.77;99383.74;4051750;85;21043;-82
2021/08/10 04:18:58;;;;;;;12.10;7.40;;;;;;;16.12;96.13;99376.45;4069605;85;21059;-82
2021/08/10 04:25:00;;;;;;;12.47;8.10;;;;;;;16.11;96.33;99383.97;4059128;85;21090;-82
2021/08/10 04:31:01;;;;;;;12.75;7.90;;;;;;;16.19;96.18;99387.48;4051322;85;21075;-82
2021/08/10 04:37:04;;;;;;;13.80;8.20;;;;;;;16.14;96.18;99383.16;4076737;84;21468;-82
2021/08/10 04:43:06;;;;;;;18.80;8.88;;;;;;;16.16;96.38;99380.77;4057803;85;21110;-82
2021/08/10 04:49:07;;;;;;;11.48;8.58;;;;;;;16.24;96.63;99378.16;3978410;87;21081;-84
2021/08/10 04:55:09;;;;;;;14.60;9.25;;;;;;;16.35;96.50;99353.26;4048226;85;21039;-83
2021/08/10 05:01:11;;;;;;;16.23;9.25;;;;;;;16.37;97.52;99353.03;4048139;85;21682;-82
2021/08/10 05:07:14;;;;;;;11.80;7.80;;;;;;;16.48;97.76;99347.45;4036223;85;21146;-82
2021/08/10 05:13:17;;;;;;;11.45;7.28;;;;;;;16.56;97.54;99353.13;3981323;86;21120;-82
2021/08/10 05:19:19;;;;;;;15.78;7.55;;;;;;;16.65;97.45;99359.77;3961929;87;21074;-85
2021/08/10 05:25:21;;;;;;;15.25;8.00;;;;;;;16.78;97.34;99373.89;4108247;84;21037;-85
2021/08/10 05:31:24;;;;;;;15.00;8.23;;;;;;;16.88;97.20;99378.56;4117186;84;21722;-81
2021/08/10 05:37:26;;;;;;;14.25;8.85;;;;;;;17.00;97.39;99384.97;4122923;84;21653;-83
2021/08/10 05:43:28;;;;;;;13.62;8.00;;;;;;;17.11;97.50;99387.84;4108785;84;21049;-83
2021/08/10 05:49:30;;;;;;;13.10;8.33;;;;;;;17.32;97.35;99387.45;4109508;84;21534;-84
2021/08/10 05:55:31;;;;;;;12.30;7.42;;;;;;;17.58;97.20;99382.07;4096240;84;21010;-82
2021/08/10 06:01:36;;;;;;;12.03;7.85;;;;;;;17.75;97.11;99381.08;4103296;84;21014;-82
2021/08/10 06:07:57;;;;;;;10.50;6.90;;;;;;;17.96;97.11;99390.50;4087410;84;21090;-81
2021/08/10 06:14:02;;;;;;;10.63;7.60;;;;;;;18.19;96.95;99388.44;3993121;86;21077;-81
2021/08/10 06:20:05;;;;;;;10.75;6.15;;;;;;;18.55;96.54;99390.94;3973841;87;21072;-80
2021/08/10 06:26:07;;;;;;;8.23;5.28;;;;;;;18.86;96.08;99402.73;3999905;87;21139;-82
2021/08/10 06:32:10;;;;;;;5.58;4.45;;;;;;;19.14;94.96;99396.13;4001696;87;21069;-82
2021/08/10 06:38:11;;;;;;;8.10;4.47;;;;;;;19.33;94.69;99384.33;4016753;85;21062;-82
2021/08/10 06:44:14;;;;;;;8.80;4.28;;;;;;;19.52;94.37;99382.20;4004865;86;21626;-82
2021/08/10 06:50:30;;;;;;;6.97;3.90;;;;;;;19.67;93.99;99389.67;3986473;86;22342;-82
2021/08/10 06:56:33;;;;;;;6.10;3.47;;;;;;;19.81;93.53;99384.59;4005189;86;21609;-83
2021/08/10 07:02:35;;;;;;;6.97;3.92;;;;;;;19.92;93.52;99386.55;4003026;87;21544;-82
2021/08/10 07:08:38;;;;;;;4.83;4.03;;;;;;;20.07;92.78;99382.30;4022051;86;21631;-82
2021/08/10 07:14:39;;;;;;;8.45;3.83;;;;;;;20.24;92.52;99385.92;4007406;86;21805;-82
2021/08/10 07:20:41;;;;;;;7.17;4.30;;;;;;;20.36;92.28;99384.49;4019581;86;21513;-82
2021/08/10 07:26:43;;;;;;;9.18;4.25;;;;;;;20.50;91.91;99386.95;4028322;86;21078;-85
2021/08/10 07:32:45;;;;;;;6.17;3.90;;;;;;;20.71;91.27;99385.85;4040818;85;21897;-82
2021/08/10 07:38:47;;;;;;;6.12;4.37;;;;;;;21.03;91.12;99388.66;4057266;85;21163;-82
2021/08/10 07:44:49;;;;;;;6.10;4.17;;;;;;;21.38;90.66;99383.59;3996752;86;21083;-82
2021/08/10 07:50:51;;;;;;;8.13;4.58;;;;;;;21.60;90.20;99375.45;4088392;84;21086;-83
2021/08/10 07:56:53;;;;;;;7.17;4.55;;;;;;;22.13;89.68;99376.77;4073778;84;21875;-83
2021/08/10 08:02:55;;;;;;;11.00;4.58;;;;;;;22.67;88.31;99364.95;4005131;87;21402;-83
2021/08/10 08:08:56;;;;;;;8.10;4.33;;;;;;;23.09;87.51;99362.95;4103532;84;21102;-82
2021/08/10 08:14:58;;;;;;;5.92;4.33;;;;;;;23.51;86.29;99360.73;4099478;84;21078;-84
2021/08/10 08:21:00;;;;;;;9.30;4.60;;;;;;;23.64;85.31;99351.69;4131093;84;21559;-85
2021/08/10 08:27:04;;;;;;;6.75;4.08;;;;;;;23.64;84.25;99346.70;4103327;84;21098;-82
2021/08/10 08:33:08;;;;;;;7.80;3.67;;;;;;;23.88;83.44;99346.42;4102732;84;21847;-82
2021/08/10 08:39:10;;;;;;;4.17;3.52;;;;;;;24.02;82.62;99339.73;4108722;84;21641;-82
2021/08/10 08:45:12;;;;;;;7.90;3.40;;;;;;;24.17;81.98;99327.36;4068816;84;21269;-82
2021/08/10 08:51:19;;;;;;;5.83;3.52;;;;;;;24.26;80.57;99328.19;4119848;84;21019;-83
2021/08/10 08:57:21;;;;;;;6.12;2.80;;;;;;;24.05;72.64;99326.83;4116434;84;21704;-82
2021/08/10 09:03:23;;;;;;;4.30;2.75;;;;;;;24.05;78.31;99323.43;4107952;84;21083;-82
2021/08/10 09:09:30;;;;;;;4.70;2.72;;;;;;;24.17;76.86;99318.97;4133774;84;21662;-84
2021/08/10 09:15:38;;;;;;;2.98;2.47;;;;;;;24.38;75.96;99304.16;4101820;84;21183;-83
2021/08/10 09:21:41;;;;;;;2.58;2.05;;;;;;;24.68;75.82;99306.78;4080999;84;21603;-83
2021/08/10 09:27:45;;;;;;;4.42;2.45;;;;;;;24.85;71.43;99306.66;4048261;85;21059;-82
2021/08/10 09:33:47;;;;;;;2.80;2.20;;;;;;;25.35;73.51;99296.33;4032700;85;21572;-84
2021/08/10 09:39:48;;;;;;;2.95;2.33;;;;;;;26.01;72.57;99297.50;4078147;84;21466;-83
2021/08/10 09:46:15;;;;;;;2.92;2.50;;;;;;;26.74;72.43;99300.04;4093081;84;21090;-83
2021/08/10 09:52:32;;;;;;;4.75;2.20;;;;;;;27.34;71.65;99297.80;4055678;85;21047;-82
2021/08/10 09:59:00;;;;;;;3.05;2.00;;;;;;;27.75;67.67;99287.59;4086725;84;21075;-83
2021/08/10 10:05:01;;;;;;;2.80;1.67;;;;;;;28.09;68.28;99281.30;4115536;84;21597;-82
2021/08/10 10:11:04;;;;;;;2.83;1.95;;;;;;;29.14;65.64;99278.67;4094566;84;21060;-83
2021/08/10 10:17:11;;;;;;;4.70;1.65;;;;;;;29.40;59.79;99278.86;4085275;83;21137;-84
2021/08/10 10:23:21;;;;;;;2.00;1.70;;;;;;;29.74;59.82;99272.98;3995250;87;21032;-83
2021/08/10 10:29:23;;;;;;;2.55;1.92;;;;;;;29.71;55.77;99270.50;4111944;84;21491;-84
2021/08/10 10:35:25;;;;;;;4.65;2.08;;;;;;;29.91;59.33;99264.79;4108693;84;21101;-83
2021/08/10 10:41:33;;;;;;;4.08;2.10;;;;;;;30.26;58.38;99259.73;4093957;85;21054;-83
2021/08/10 10:47:37;;;;;;;2.50;1.90;;;;;;;29.91;54.29;99246.45;4110270;84;22266;-83
2021/08/10 10:53:40;;;;;;;3.35;1.75;;;;;;;29.63;55.56;99251.03;4111631;84;21062;-83
2021/08/10 10:59:46;;;;;;;7.35;2.20;;;;;;;29.63;55.14;99238.99;4109094;85;21068;-82
2021/08/10 11:05:45;;;;;;;3.55;1.90;;;;;;;29.40;53.75;99232.96;4100100;85;21066;-83
2021/08/10 11:11:52;;;;;;;3.30;2.15;;;;;;;29.83;55.10;99227.03;4066887;85;21121;-83
2021/08/10 11:18:14;;;;;;;1.82;1.60;;;;;;;30.48;54.42;99224.59;4051039;84;21053;-83
2021/08/10 11:24:33;;;;;;;4.33;2.27;;;;;;;30.83;53.81;99217.86;4081710;84;21081;-84
2021/08/10 11:30:46;;;;;;;3.75;1.70;;;;;;;30.85;50.95;99220.33;4024091;85;21090;-83
2021/08/10 11:36:47;;;;;;;1.85;1.70;;;;;;;31.05;51.60;99208.06;4051018;86;21063;-83
2021/08/10 11:42:54;;;;;;;2.30;1.65;;;;;;;31.23;50.63;99204.80;3995023;86;21105;-83
2021/08/10 11:49:06;;;;;;;4.97;2.08;;;;;;;31.29;50.33;99204.91;4099293;84;21039;-84
2021/08/10 11:55:08;;;;;;;2.37;1.70;;;;;;;31.24;50.67;99200.04;4106371;84;21140;-84
2021/08/10 12:01:09;;;;;;;3.08;1.90;;;;;;;31.01;47.74;99199.06;4070978;85;21094;-83
2021/08/10 12:07:12;;;;;;;5.35;1.82;;;;;;;30.37;47.71;99191.26;4110498;84;21053;-82
2021/08/10 12:13:23;;;;;;;3.47;1.75;;;;;;;29.90;49.25;99184.86;4100654;84;21101;-82
2021/08/10 12:19:44;;;;;;;3.10;2.00;;;;;;;29.67;48.46;99177.50;4101262;85;21058;-82
2021/08/10 12:25:46;;;;;;;4.05;1.90;;;;;;;29.16;48.75;99160.58;4116283;85;21041;-81
2021/08/10 12:31:47;;;;;;;4.85;1.90;;;;;;;28.94;48.05;99157.61;4057864;85;21496;-81
2021/08/10 12:37:48;;;;;;;3.22;2.10;;;;;;;28.64;48.76;99145.61;4094315;85;21023;-84
2021/08/10 12:43:52;;;;;;;2.90;1.80;;;;;;;28.43;49.79;99136.97;4095974;84;21054;-82
2021/08/10 12:49:56;;;;;;;3.02;2.15;;;;;;;28.27;50.17;99124.87;4097037;85;21000;-82
2021/08/10 12:55:59;;;;;;;3.75;1.95;;;;;;;28.20;50.88;99118.24;4106038;84;21504;-83
2021/08/10 13:02:01;;;;;;;3.60;2.10;;;;;;;28.03;49.58;99101.77;4091706;84;21130;-86
2021/08/10 13:08:08;;;;;;;2.00;1.77;;;;;;;27.86;50.68;99104.28;4114563;84;21569;-82
2021/08/10 13:14:12;;;;;;;5.67;2.40;;;;;;;27.63;50.28;99091.94;4100102;84;21021;-84
2021/08/10 13:20:17;;;;;;;3.55;2.30;;;;;;;27.51;49.80;99080.38;4112340;85;21007;-82
2021/08/10 13:26:19;;;;;;;3.10;1.93;;;;;;;27.46;50.68;99067.00;4062509;85;21122;-82
2021/08/10 13:32:20;;;;;;;4.55;2.00;;;;;;;27.37;51.28;99056.50;4064854;85;21129;-82
2021/08/10 13:38:21;;;;;;;5.53;2.27;;;;;;;27.31;50.52;99051.42;4040136;85;21074;-82
2021/08/10 13:44:22;;;;;;;4.47;2.10;;;;;;;27.31;50.79;99036.72;4076829;84;21085;-82
2021/08/10 13:50:24;;;;;;;2.70;2.20;;;;;;;27.32;51.53;99031.26;4096768;84;21102;-82
2021/08/10 13:56:30;;;;;;;2.62;2.15;;;;;;;27.31;51.14;99026.13;4101510;84;21011;-82
2021/08/10 14:02:35;;;;;;;3.62;2.15;;;;;;;27.30;52.21;99022.53;4117505;84;21089;-83
2021/08/10 14:08:37;;;;;;;3.55;2.20;;;;;;;27.26;52.37;99021.19;4117208;84;21017;-83
2021/08/10 14:14:38;;;;;;;2.92;2.05;;;;;;;27.21;52.44;99011.38;4108873;84;21046;-82
2021/08/10 14:20:39;;;;;;;4.53;2.33;;;;;;;27.11;52.51;99004.30;4126624;84;22264;-84
2021/08/10 14:26:41;;;;;;;2.90;1.80;;;;;;;27.08;53.08;98998.88;4103017;85;21048;-82
2021/08/10 14:32:42;;;;;;;2.90;2.25;;;;;;;27.08;53.14;98987.02;4098810;85;21003;-82
2021/08/10 14:38:43;;;;;;;2.95;1.98;;;;;;;27.02;53.25;98992.39;4114856;84;21138;-82
2021/08/10 14:44:45;;;;;;;3.02;2.22;;;;;;;27.06;51.73;98993.74;4119390;85;21061;-82
2021/08/10 14:50:46;;;;;;;2.92;1.92;;;;;;;27.08;52.14;98987.64;4110649;83;21829;-82
2021/08/10 14:56:47;;;;;;;3.42;2.40;;;;;;;27.01;52.79;98994.45;4086539;84;21069;-82
2021/08/10 15:02:49;;;;;;;4.25;2.10;;;;;;;26.85;53.07;98992.75;4119852;85;21011;-83
2021/08/10 15:08:50;;;;;;;3.25;2.30;;;;;;;26.74;52.75;98987.72;4089147;84;34363;-83
2021/08/10 15:14:51;;;;;;;3.22;2.20;;;;;;;26.70;53.00;98970.92;4086480;85;21037;-83
2021/08/10 15:20:53;;;;;;;3.33;2.20;;;;;;;26.52;53.60;98962.64;4076913;85;21422;-83
2021/08/10 15:26:54;;;;;;;3.50;2.22;;;;;;;26.40;53.64;98957.47;4077796;84;21088;-83
2021/08/10 15:32:56;;;;;;;3.30;2.17;;;;;;;26.34;54.10;98962.83;4093355;85;22156;-83
2021/08/10 15:38:57;;;;;;;3.62;2.12;;;;;;;26.32;53.75;98961.91;4083086;85;21065;-84
2021/08/10 15:44:59;;;;;;;3.62;2.20;;;;;;;26.28;54.24;98964.11;4083994;85;21684;-83
2021/08/10 15:51:00;;;;;;;3.72;2.10;;;;;;;26.12;54.48;98936.53;4094686;85;22075;-83
2021/08/10 15:57:04;;;;;;;6.17;2.52;;;;;;;26.12;54.48;98936.53;4087574;85;21051;-84
2021/08/10 16:03:09;;;;;;;5.40;2.17;;;;;;;26.25;54.04;98955.25;4090939;85;21825;-83
2021/08/10 16:09:10;;;;;;;2.92;2.30;;;;;;;26.03;54.11;98916.95;4079278;85;21079;-83
2021/08/10 16:15:13;;;;;;;3.42;2.10;;;;;;;26.03;54.11;98916.95;4080947;85;21056;-83
2021/08/10 16:21:14;;;;;;;4.40;2.50;;;;;;;26.00;54.49;98917.30;4084844;85;21014;-83
2021/08/10 16:27:15;;;;;;;4.12;2.40;;;;;;;25.90;54.78;98912.98;4082079;85;21092;-83
2021/08/10 16:33:17;;;;;;;5.10;2.50;;;;;;;25.90;54.44;98909.42;4077076;85;21056;-83
2021/08/10 16:39:18;;;;;;;2.72;1.80;;;;;;;25.85;54.31;98905.87;4095756;84;21061;-83
2021/08/10 16:45:20;;;;;;;3.30;1.80;;;;;;;25.91;54.49;98910.34;4090270;84;21067;-83
2021/08/10 16:51:22;;;;;;;5.12;2.45;;;;;;;25.78;54.87;98907.62;4087890;84;21613;-83
2021/08/10 16:57:23;;;;;;;3.95;2.02;;;;;;;25.73;54.76;98911.11;4111318;85;21503;-85
2021/08/10 17:03:24;;;;;;;4.87;2.50;;;;;;;25.62;55.21;98909.48;4104428;84;21131;-85
2021/08/10 17:09:25;;;;;;;5.00;2.42;;;;;;;25.54;55.57;98908.28;4118892;84;21639;-83
2021/08/10 17:15:28;;;;;;;6.12;2.85;;;;;;;25.53;56.15;98913.73;4095224;85;21055;-83
2021/08/10 17:21:30;;;;;;;6.75;2.60;;;;;;;25.42;56.42;98915.67;4105763;84;21096;-84
2021/08/10 17:27:31;;;;;;;4.50;2.85;;;;;;;25.20;57.38;98918.59;4102190;84;21095;-84
2021/08/10 17:33:35;;;;;;;5.53;3.10;;;;;;;24.97;57.94;98926.30;4092038;85;21011;-83
2021/08/10 17:39:35;;;;;;;5.20;3.33;;;;;;;24.73;58.60;98925.48;4108696;84;21078;-86
2021/08/10 17:45:37;;;;;;;5.87;2.85;;;;;;;24.50;59.51;98936.69;4105057;85;21595;-84
2021/08/10 17:51:41;;;;;;;6.37;3.10;;;;;;;24.32;60.27;98946.53;4106314;84;21062;-83
2021/08/10 17:57:43;;;;;;;8.00;3.92;;;;;;;24.19;60.83;98953.69;4111593;84;21034;-83
2021/08/10 18:03:44;;;;;;;6.00;4.40;;;;;;;24.07;61.39;98950.41;4120377;84;21124;-84
2021/08/10 18:09:45;;;;;;;17.12;5.25;;;;;;;23.95;61.67;98945.72;4111779;84;21834;-83
2021/08/10 18:15:47;;;;;;;10.78;6.30;;;;;;;23.81;61.78;98951.93;3993016;87;21436;-83
2021/08/10 18:21:49;;;;;;;12.33;5.12;;;;;;;23.69;62.36;98955.66;3971999;87;21693;-84
2021/08/10 18:27:51;;;;;;;9.05;4.85;;;;;;;23.58;62.92;98961.52;3960717;87;21030;-85
2021/08/10 18:33:52;;;;;;;12.10;5.92;;;;;;;23.42;63.53;98975.14;3988797;87;21053;-83
2021/08/10 18:39:53;;;;;;;10.80;5.70;;;;;;;23.29;63.88;98991.23;3968579;87;21069;-83
2021/08/10 18:45:55;;;;;;;11.25;5.72;;;;;;;23.11;64.59;98993.94;4091275;85;21013;-83
2021/08/10 18:51:56;;;;;;;14.20;6.17;;;;;;;22.98;64.93;98999.61;4091164;85;21573;-83
2021/08/10 18:57:57;;;;;;;15.93;5.22;;;;;;;22.91;65.63;99005.45;4086792;85;21049;-83
2021/08/10 19:03:58;;;;;;;11.35;6.20;;;;;;;22.82;66.98;99014.39;4045207;86;21099;-83
2021/08/10 19:10:00;;;;;;;10.25;5.35;;;;;;;22.62;67.15;99013.35;4089488;85;21093;-84
2021/08/10 19:16:02;;;;;;;13.58;5.75;;;;;;;22.36;67.15;99009.12;3987106;87;21565;-82
2021/08/10 19:22:03;;;;;;;7.67;5.17;;;;;;;22.38;68.04;98994.08;3992235;87;21090;-83
2021/08/10 19:28:06;;;;;;;11.40;5.92;;;;;;;22.33;67.83;98999.48;3967178;87;21610;-84
2021/08/10 19:34:08;;;;;;;12.07;5.47;;;;;;;22.17;67.99;98988.50;3984122;87;21125;-83
2021/08/10 19:40:09;;;;;;;8.45;5.78;;;;;;;22.12;68.37;98984.28;3988213;86;21543;-83
2021/08/10 19:46:11;;;;;;;9.63;5.70;;;;;;;22.01;68.43;98987.27;3956522;87;21598;-83
2021/08/10 19:52:12;;;;;;;9.45;5.35;;;;;;;21.89;68.99;98992.28;3962417;87;22337;-83
2021/08/10 19:58:13;;;;;;;8.15;4.92;;;;;;;21.74;69.46;98994.13;3957468;87;21502;-83
2021/08/10 20:04:15;;;;;;;11.10;5.53;;;;;;;21.50;69.15;98985.22;4097168;84;22090;-82
2021/08/10 20:10:16;;;;;;;9.65;5.10;;;;;;;21.40;69.84;98999.65;3975323;84;10000342;-82
2021/08/10 20:16:17;;;;;;;11.50;5.40;;;;;;;21.27;70.11;99007.22;4084792;84;21133;-83
2021/08/10 20:22:19;;;;;;;12.15;5.03;;;;;;;21.11;71.16;99002.39;4104232;84;30053;-82
2021/08/10 20:28:20;;;;;;;9.90;5.08;;;;;;;20.95;71.37;99006.03;4071661;85;21037;-82
2021/08/10 20:34:21;;;;;;;13.43;5.60;;;;;;;20.74;71.88;99012.81;4018309;85;21012;-82
2021/08/10 20:40:23;;;;;;;9.73;5.53;;;;;;;20.59;72.44;99017.23;4161111;83;21026;-82
2021/08/10 20:46:25;;;;;;;13.45;6.60;;;;;;;20.50;72.75;99027.60;4097748;84;21619;-82
2021/08/10 20:52:26;;;;;;;10.18;6.70;;;;;;;20.24;73.11;99028.73;4112202;84;21043;-82
2021/08/10 20:58:27;;;;;;;10.55;6.45;;;;;;;20.22;73.98;99029.78;4084305;84;21034;-82
2021/08/10 21:04:30;;;;;;;12.37;6.22;;;;;;;20.23;74.16;99045.25;4086900;84;21560;-83
2021/08/10 21:10:31;;;;;;;14.43;6.97;;;;;;;20.06;74.56;99049.26;4124189;84;21083;-82
2021/08/10 21:16:32;;;;;;;10.90;4.92;;;;;;;19.87;74.76;99046.73;4105407;84;21048;-82
2021/08/10 21:22:34;;;;;;;14.13;5.87;;;;;;;19.67;75.60;99055.02;4112108;84;21036;-83
2021/08/10 21:28:35;;;;;;;9.53;5.60;;;;;;;19.53;76.20;99063.69;4118681;84;21074;-83
2021/08/10 21:34:36;;;;;;;9.40;5.45;;;;;;;19.44;76.93;99069.83;4114853;84;22328;-82
2021/08/10 21:40:39;;;;;;;12.15;6.90;;;;;;;19.47;77.53;99075.91;4125300;84;21062;-82
2021/08/10 21:46:41;;;;;;;10.95;5.72;;;;;;;19.44;77.24;99080.14;4126673;84;21085;-85
2021/08/10 21:52:43;;;;;;;12.28;6.70;;;;;;;19.26;77.69;99094.42;4118436;84;21050;-82
2021/08/10 21:58:44;;;;;;;9.98;5.97;;;;;;;19.21;78.00;99087.98;4106643;85;21075;-83
2021/08/10 22:04:45;;;;;;;14.28;7.05;;;;;;;19.05;78.17;99094.08;4051553;85;21574;-82
2021/08/10 22:10:46;;;;;;;13.58;6.72;;;;;;;18.82;78.39;99091.40;4098771;84;21927;-82
2021/08/10 22:16:48;;;;;;;11.83;7.25;;;;;;;18.68;79.09;99104.95;4177862;83;21040;-81
2021/08/10 22:22:49;;;;;;;17.00;10.45;;;;;;;18.58;79.33;99095.63;4114673;84;22211;-81
2021/08/10 22:28:50;;;;;;;24.07;12.70;;;;;;;18.47;79.53;99093.66;4117260;84;21057;-82
2021/08/10 22:34:52;;;;;;;29.02;15.68;;;;;;;18.37;80.06;99089.06;4118751;84;21083;-82
2021/08/10 22:40:53;;;;;;;27.10;14.98;;;;;;;18.15;80.34;99093.42;4133506;84;21055;-81
2021/08/10 22:46:54;;;;;;;27.52;14.33;;;;;;;18.22;81.47;99097.47;4100988;84;21529;-82
2021/08/10 22:52:55;;;;;;;25.45;13.88;;;;;;;18.41;81.85;99117.55;4173758;83;21121;-84
2021/08/10 22:58:57;;;;;;;18.30;10.18;;;;;;;18.36;81.64;99117.20;4178571;83;21066;-81
2021/08/10 23:04:58;;;;;;;18.27;10.38;;;;;;;18.23;82.07;99101.00;4174034;82;20999;-81
2021/08/10 23:10:59;;;;;;;14.38;9.35;;;;;;;18.10;82.25;99108.38;4193872;83;21019;-82
2021/08/10 23:17:01;;;;;;;14.98;8.90;;;;;;;18.11;82.20;99095.48;4158163;83;20968;-81
2021/08/10 23:23:03;;;;;;;16.77;8.95;;;;;;;18.14;82.57;99098.80;4203446;82;21043;-84
2021/08/10 23:29:04;;;;;;;16.62;9.10;;;;;;;17.82;82.22;99113.77;4175697;83;21060;-81
2021/08/10 23:35:06;;;;;;;17.65;9.65;;;;;;;17.90;83.71;99141.53;4174286;83;20977;-82
2021/08/10 23:41:08;;;;;;;12.80;8.40;;;;;;;18.07;83.85;99172.93;4178320;83;21062;-83
2021/08/10 23:47:10;;;;;;;16.52;9.08;;;;;;;18.00;83.35;99174.41;4175188;83;21044;-83
2021/08/10 23:53:11;;;;;;;15.03;7.87;;;;;;;17.92;83.53;99142.49;4175872;83;21074;-82
2021/08/10 23:59:12;;;;;;;13.15;8.25;;;;;;;17.99;83.76;99102.23;4180236;83;21051;-81
